createdAt,value
2023-03-29T00:03:47.572Z,58.30
2023-03-29T00:09:15.949Z,58.16
2023-03-29T00:14:42.614Z,57.73
2023-03-29T00:20:10.503Z,59.22
2023-03-29T00:25:37.870Z,58.50
2023-03-29T00:31:11.801Z,59.09
2023-03-29T00:36:40.759Z,58.61
2023-03-29T00:42:13.547Z,59.24
2023-03-29T00:47:45.905Z,59.01
2023-03-29T00:53:22.029Z,59.05
2023-03-29T00:59:10.430Z,58.83
2023-03-29T01:04:54.583Z,58.20
2023-03-29T01:10:31.956Z,57.67
2023-03-29T01:16:02.086Z,57.39
2023-03-29T01:21:45.479Z,58.82
2023-03-29T01:27:22.976Z,58.43
2023-03-29T01:32:59.962Z,58.01
2023-03-29T01:39:03.815Z,58.28
2023-03-29T01:44:43.324Z,57.98
2023-03-29T01:50:19.275Z,58.01
2023-03-29T01:55:54.980Z,59.19
2023-03-29T02:01:29.363Z,59.97
2023-03-29T02:06:59.764Z,59.24
2023-03-29T02:12:27.265Z,59.05
2023-03-29T02:17:54.981Z,59.49
2023-03-29T02:23:27.613Z,59.28
2023-03-29T02:28:56.159Z,59.17
2023-03-29T02:34:27.276Z,59.50
2023-03-29T02:39:55.302Z,58.72
2023-03-29T02:45:24.402Z,58.50
2023-03-29T02:50:56.698Z,58.02
2023-03-29T02:56:24.595Z,58.31
2023-03-29T03:01:53.021Z,58.55
2023-03-29T03:07:21.955Z,57.64
2023-03-29T03:12:50.168Z,58.04
2023-03-29T03:18:17.948Z,57.66
2023-03-29T03:23:46.522Z,57.63
2023-03-29T03:29:16.118Z,57.48
2023-03-29T03:35:05.899Z,56.99
2023-03-29T03:40:33.740Z,56.68
2023-03-29T03:46:01.686Z,56.24
2023-03-29T03:51:31.571Z,56.76
2023-03-29T03:56:59.325Z,56.44
2023-03-29T04:02:39.568Z,56.19
2023-03-29T04:08:08.034Z,56.50
2023-03-29T04:14:03.112Z,56.62
2023-03-29T04:20:01.626Z,56.35
2023-03-29T04:25:33.573Z,56.38
2023-03-29T04:31:37.948Z,56.51
2023-03-29T04:37:25.442Z,56.43
2023-03-29T04:42:54.832Z,55.61
2023-03-29T04:48:22.802Z,55.41
2023-03-29T04:53:51.716Z,55.54
2023-03-29T04:59:19.375Z,54.37
2023-03-29T05:04:47.699Z,50.26
2023-03-29T05:10:17.970Z,44.98
2023-03-29T05:15:45.660Z,39.67
2023-03-29T05:21:14.144Z,36.30
2023-03-29T05:26:45.248Z,34.54
2023-03-29T05:32:13.890Z,31.13
2023-03-29T05:37:42.157Z,29.25
2023-03-29T05:43:09.796Z,28.62
2023-03-29T05:48:37.715Z,25.78
2023-03-29T05:54:05.999Z,24.08
2023-03-29T05:59:35.308Z,22.42
2023-03-29T06:05:04.936Z,21.89
2023-03-29T06:10:57.559Z,21.38
2023-03-29T06:16:42.837Z,20.83
2023-03-29T06:22:14.752Z,19.07
2023-03-29T06:27:43.445Z,19.78
2023-03-29T06:33:13.477Z,21.02
2023-03-29T06:38:47.583Z,21.28
2023-03-29T06:44:40.842Z,22.66
2023-03-29T06:50:18.652Z,23.50
2023-03-29T06:56:12.070Z,23.74
2023-03-29T07:01:43.503Z,22.62
2023-03-29T07:07:20.678Z,23.13
2023-03-29T07:12:53.312Z,23.33
2023-03-29T07:18:21.401Z,23.64
2023-03-29T07:23:49.000Z,23.47
2023-03-29T07:29:16.936Z,23.38
2023-03-29T07:34:44.502Z,22.32
2023-03-29T07:40:35.132Z,19.91
2023-03-29T07:46:21.247Z,17.14
2023-03-29T07:51:50.105Z,16.42
2023-03-29T07:57:18.110Z,17.52
2023-03-29T08:02:52.930Z,17.53
2023-03-29T08:08:21.317Z,18.44
2023-03-29T08:13:56.635Z,18.76
2023-03-29T08:19:51.274Z,18.68
2023-03-29T08:25:22.207Z,18.12
2023-03-29T08:30:53.773Z,17.23
2023-03-29T08:36:22.260Z,16.60
2023-03-29T08:41:58.613Z,16.10
2023-03-29T08:47:54.800Z,14.83
2023-03-29T08:53:37.232Z,13.47
2023-03-29T08:59:30.943Z,13.34
2023-03-29T09:05:18.666Z,12.88
2023-03-29T09:11:23.172Z,15.20
2023-03-29T09:17:10.579Z,15.97
2023-03-29T09:22:44.450Z,15.23
2023-03-29T09:28:22.637Z,15.38
2023-03-29T09:34:09.629Z,16.74
2023-03-29T09:39:53.615Z,16.28
2023-03-29T09:45:24.447Z,17.35
2023-03-29T09:50:54.015Z,18.04
2023-03-29T09:56:21.831Z,20.37
2023-03-29T10:02:09.995Z,20.49
2023-03-29T10:07:47.627Z,21.09
2023-03-29T10:13:50.974Z,21.06
2023-03-29T10:19:36.397Z,21.06
2023-03-29T10:25:05.261Z,19.68
2023-03-29T10:30:37.621Z,20.73
2023-03-29T10:36:07.644Z,19.58
2023-03-29T10:41:36.079Z,18.94
2023-03-29T10:47:19.819Z,19.27
2023-03-29T10:52:48.542Z,18.85
2023-03-29T10:58:15.826Z,18.46
2023-03-29T11:04:16.429Z,18.45
2023-03-29T11:09:57.477Z,18.80
2023-03-29T11:15:48.737Z,18.56
2023-03-29T11:21:45.055Z,17.42
2023-03-29T11:27:17.363Z,16.50
2023-03-29T11:33:09.391Z,17.47
2023-03-29T11:38:48.426Z,17.30
2023-03-29T11:44:21.299Z,17.40
2023-03-29T11:49:54.915Z,17.51
2023-03-29T11:55:29.446Z,17.87
2023-03-29T12:01:04.933Z,19.56
2023-03-29T12:06:45.880Z,20.07
2023-03-29T12:12:46.836Z,22.10
2023-03-29T12:18:40.183Z,22.17
2023-03-29T12:24:13.297Z,22.33
2023-03-29T12:29:52.865Z,23.21
2023-03-29T12:35:34.742Z,22.93
2023-03-29T12:41:23.699Z,23.32
2023-03-29T12:47:00.670Z,23.74
2023-03-29T12:52:33.430Z,24.75
2023-03-29T12:58:07.409Z,24.78
2023-03-29T13:03:52.071Z,24.01
2023-03-29T13:09:23.813Z,24.17
2023-03-29T13:15:17.194Z,23.91
2023-03-29T13:20:45.091Z,22.83
2023-03-29T13:26:27.547Z,23.38
2023-03-29T13:32:13.694Z,23.11
2023-03-29T13:38:00.435Z,22.64
2023-03-29T13:43:51.431Z,23.00
2023-03-29T13:49:26.720Z,22.98
2023-03-29T13:55:02.111Z,22.19
2023-03-29T14:00:42.276Z,22.18
2023-03-29T14:06:13.110Z,22.55
2023-03-29T14:11:46.158Z,23.14
2023-03-29T14:17:21.578Z,23.31
2023-03-29T14:22:50.328Z,22.36
2023-03-29T14:28:31.002Z,22.42
2023-03-29T14:34:01.238Z,22.59
2023-03-29T14:39:29.381Z,24.10
2023-03-29T14:45:06.613Z,24.08
2023-03-29T14:50:36.171Z,24.60
2023-03-29T14:56:08.707Z,24.65
2023-03-29T15:01:44.936Z,24.20
2023-03-29T15:07:12.583Z,24.85
2023-03-29T15:12:43.939Z,24.28
2023-03-29T15:18:17.362Z,24.21
2023-03-29T15:23:56.133Z,24.24
2023-03-29T15:29:26.304Z,24.64
2023-03-29T15:35:06.691Z,25.35
2023-03-29T15:40:34.628Z,26.58
2023-03-29T15:46:03.312Z,27.54
2023-03-29T15:51:31.830Z,28.37
2023-03-29T15:57:07.871Z,29.47
2023-03-29T16:02:36.298Z,29.62
2023-03-29T16:08:04.197Z,30.22
2023-03-29T16:13:32.155Z,30.47
2023-03-29T16:18:59.929Z,30.95
2023-03-29T16:24:33.280Z,30.68
2023-03-29T16:30:00.820Z,31.47
2023-03-29T16:35:32.443Z,31.72
2023-03-29T16:41:00.814Z,32.17
2023-03-29T16:46:29.218Z,32.76
2023-03-29T16:51:56.370Z,32.95
2023-03-29T16:57:24.067Z,33.39
2023-03-29T17:02:51.847Z,33.73
2023-03-29T17:08:21.716Z,34.19
2023-03-29T17:13:50.986Z,34.26
2023-03-29T17:19:19.661Z,34.87
2023-03-29T17:24:48.238Z,35.41
2023-03-29T17:30:15.699Z,36.18
2023-03-29T17:35:44.396Z,36.03
2023-03-29T17:41:11.660Z,36.74
2023-03-29T17:46:39.143Z,36.79
2023-03-29T17:52:06.798Z,37.47
2023-03-29T17:57:34.257Z,38.21
2023-03-29T18:03:02.062Z,38.76
2023-03-29T18:08:31.071Z,38.69
2023-03-29T18:14:00.923Z,38.93
2023-03-29T18:19:28.903Z,39.75
2023-03-29T18:24:56.850Z,39.72
2023-03-29T18:30:24.912Z,40.24
2023-03-29T18:35:53.043Z,40.58
2023-03-29T18:41:21.744Z,40.35
2023-03-29T18:46:50.156Z,40.80
2023-03-29T18:52:17.646Z,40.91
2023-03-29T18:57:45.182Z,41.66
2023-03-29T19:03:13.243Z,40.87
2023-03-29T19:08:42.447Z,41.11
2023-03-29T19:14:11.406Z,41.36
2023-03-29T19:19:40.026Z,41.30
2023-03-29T19:25:08.162Z,41.46
2023-03-29T19:30:36.728Z,41.55
2023-03-29T19:36:04.027Z,42.02
2023-03-29T19:41:32.244Z,42.28
2023-03-29T19:47:00.424Z,42.34
2023-03-29T19:52:28.916Z,42.79
2023-03-29T19:57:55.848Z,42.74
2023-03-29T20:03:23.155Z,43.11
2023-03-29T20:08:53.116Z,43.47
2023-03-29T20:14:20.262Z,43.52
2023-03-29T20:19:48.381Z,43.41
2023-03-29T20:25:16.075Z,43.56
2023-03-29T20:30:43.124Z,44.41
2023-03-29T20:36:11.627Z,44.85
2023-03-29T20:41:39.051Z,44.84
2023-03-29T20:47:08.782Z,44.95
2023-03-29T20:52:36.251Z,45.72
2023-03-29T20:58:03.109Z,45.87
2023-03-29T21:03:30.260Z,45.76
2023-03-29T21:08:57.712Z,46.54
2023-03-29T21:14:26.880Z,46.76
2023-03-29T21:19:55.115Z,46.44
2023-03-29T21:25:22.572Z,46.86
2023-03-29T21:30:50.420Z,46.49
2023-03-29T21:36:18.708Z,47.29
2023-03-29T21:41:46.587Z,48.52
2023-03-29T21:47:14.351Z,49.44
2023-03-29T21:52:41.286Z,49.53
2023-03-29T21:58:08.118Z,50.00
2023-03-29T22:03:35.582Z,49.79
2023-03-29T22:09:03.886Z,49.92
2023-03-29T22:14:35.431Z,49.49
2023-03-29T22:20:04.933Z,49.55
2023-03-29T22:25:32.614Z,49.50
2023-03-29T22:31:09.855Z,49.61
2023-03-29T22:36:38.141Z,49.48
2023-03-29T22:42:05.740Z,49.17
2023-03-29T22:47:34.454Z,49.42
2023-03-29T22:53:01.970Z,50.43
2023-03-29T22:58:29.834Z,50.15
2023-03-29T23:03:57.565Z,49.70
2023-03-29T23:09:24.682Z,49.45
2023-03-29T23:14:53.418Z,49.36
2023-03-29T23:20:21.522Z,49.48
2023-03-29T23:25:49.956Z,49.36
2023-03-29T23:31:20.580Z,49.71
2023-03-29T23:36:47.730Z,50.08
2023-03-29T23:42:16.128Z,50.33
2023-03-29T23:47:45.910Z,51.04
2023-03-29T23:53:14.250Z,50.56
2023-03-29T23:58:42.120Z,49.85
